This is the latest recevied weather packets stored in our database for station/object K0NV. If no packets are shown the sender has not sent any weather packets the latest 10 day(s).
| Time | Temp. | Humidity | Pressure | Rain* | Wind** | Luminosity | Snow |
|---|---|---|---|---|---|---|---|
| 1777756915 | 18.33° C | 40% | 1020.7 hPa | 0 mm | - | 488 W/m² | - |
| 1777756610 | 18.33° C | 42% | 1020.4 hPa | 0 mm | - | 556 W/m² | - |
| 1777756308 | 18.33° C | 42% | 1020.6 hPa | 0 mm | - | 582 W/m² | - |
| 1777756005 | 18.33° C | 43% | 1020.7 hPa | 0 mm | - | 139 W/m² | - |
| 1777755702 | 17.78° C | 43% | 1020.6 hPa | 0 mm | - | 627 W/m² | - |
| 1777755399 | 18.89° C | 44% | 1020.5 hPa | 0 mm | - | 626 W/m² | - |
| 1777755095 | 18.33° C | 45% | 1020.7 hPa | 0 mm | - | 638 W/m² | - |
| 1777754792 | 17.78° C | 43% | 1020.9 hPa | 0 mm | - | 659 W/m² | - |
| 1777754490 | 17.78° C | 45% | 1021.1 hPa | 0 mm | - | 662 W/m² | - |
| 1777754187 | 17.22° C | 45% | 1021 hPa | 0 mm | - | 657 W/m² | - |
| 1777753884 | 17.78° C | 44% | 1021.1 hPa | 0 mm | - | 660 W/m² | - |
| 1777753579 | 17.78° C | 43% | 1020.7 hPa | 0 mm | - | 594 W/m² | - |
| 1777753278 | 17.78° C | 45% | 1021 hPa | 0 mm | - | 609 W/m² | - |
| 1777752974 | 16.67° C | 47% | 1021 hPa | 0 mm | - | 630 W/m² | - |
| 1777752671 | 16.67° C | 45% | 1021.1 hPa | 0 mm | - | 106 W/m² | - |
| 1777752366 | 16.67° C | 46% | 1021.3 hPa | 0 mm | - | 144 W/m² | - |
| 1777752064 | 17.22° C | 43% | 1021.2 hPa | 0 mm | - | 223 W/m² | - |
| 1777751762 | 17.22° C | 45% | 1021.2 hPa | 0 mm | - | 371 W/m² | - |
| 1777751457 | 18.33° C | 44% | 1021.1 hPa | 0 mm | - | 709 W/m² | - |
| 1777751154 | 17.22° C | 46% | 1021.3 hPa | 0 mm | - | 388 W/m² | - |
| 1777750850 | 18.89° C | 43% | 1021 hPa | 0 mm | - | 210 W/m² | - |
| 1777750548 | 17.78° C | 45% | 1021.1 hPa | 0 mm | - | 753 W/m² | - |
| 1777750244 | 18.33° C | 44% | 1021.3 hPa | 0 mm | - | 768 W/m² | - |
| 1777749940 | 17.78° C | 48% | 1021.4 hPa | 0 mm | - | 741 W/m² | - |
| 1777749638 | 17.78° C | 47% | 1021.3 hPa | 0 mm | - | 728 W/m² | - |
* Rain latest hour (hover to see other rain measurements)
** Current wind speed in m/s (hover to see current wind gust speed)